Shirebrook, United Kingdom
Current Conditions -  °F | °C
As of 4:20 PM on Thursday 29 Jan 2015 (Local Time) from EGCN Reporting Station
Few Clouds Few Clouds  
Wind Chill: 24°   Ceiling: Unl
Heat Index: 34°   Visibility: 6mi
Dew Point: 32°   Wind: 14mph
Humidity: 93%   Direction: 290°WNW
Pressure: 28.79"   Gusts: NA
Location:  53.2°N, 1.21°W
Report Text: EGCN 291620Z 29012KT 9999 FEW010 01/M00 Q0975
Loading
Personal Weather Stations






























Interactive Weather Map New forecast layout! Learn more

10-Day Weather Forecast

Advertisements
Track Severe Weather on mobile